createdAt,value
2022-10-05T00:01:24.746Z,11.65
2022-10-05T00:03:52.915Z,11.54
2022-10-05T00:06:19.292Z,11.49
2022-10-05T00:08:45.889Z,11.45
2022-10-05T00:11:16.379Z,11.54
2022-10-05T00:13:42.933Z,11.57
2022-10-05T00:16:21.260Z,11.61
2022-10-05T00:18:53.389Z,11.55
2022-10-05T00:21:26.799Z,11.59
2022-10-05T00:23:56.219Z,11.64
2022-10-05T00:26:27.353Z,11.64
2022-10-05T00:28:54.960Z,11.68
2022-10-05T00:31:27.361Z,11.73
2022-10-05T00:33:55.176Z,11.73
2022-10-05T00:36:21.616Z,11.68
2022-10-05T00:38:47.985Z,11.70
2022-10-05T00:41:40.555Z,11.69
2022-10-05T00:44:12.791Z,11.68
2022-10-05T00:46:55.936Z,11.77
2022-10-05T00:49:37.601Z,11.81
2022-10-05T00:52:23.462Z,11.81
2022-10-05T00:54:59.985Z,11.82
2022-10-05T00:57:46.569Z,11.79
2022-10-05T01:00:16.292Z,11.77
2022-10-05T01:03:06.448Z,11.76
2022-10-05T01:05:39.808Z,11.77
2022-10-05T01:08:22.806Z,11.72
2022-10-05T01:11:08.715Z,11.67
2022-10-05T01:13:41.817Z,11.72
2022-10-05T01:16:19.968Z,11.80
2022-10-05T01:19:21.170Z,11.78
2022-10-05T01:22:21.576Z,11.81
2022-10-05T01:25:01.964Z,11.83
2022-10-05T01:27:40.468Z,11.77
2022-10-05T01:30:14.211Z,11.69
2022-10-05T01:33:05.204Z,11.63
2022-10-05T01:36:02.671Z,11.75
2022-10-05T01:39:03.180Z,11.80
2022-10-05T01:41:29.486Z,11.67
2022-10-05T01:44:01.041Z,11.69
2022-10-05T01:46:50.783Z,11.64
2022-10-05T01:49:49.100Z,11.74
2022-10-05T01:52:42.732Z,11.80
2022-10-05T01:55:19.080Z,11.78
2022-10-05T01:58:08.386Z,11.81
2022-10-05T02:00:57.540Z,11.80
2022-10-05T02:03:27.838Z,11.78
2022-10-05T02:06:01.523Z,11.79
2022-10-05T02:08:49.798Z,11.87
2022-10-05T02:11:16.276Z,11.85
2022-10-05T02:13:51.753Z,11.85
2022-10-05T02:16:39.389Z,11.93
2022-10-05T02:19:32.512Z,12.04
2022-10-05T02:22:08.577Z,12.12
2022-10-05T02:24:39.699Z,12.08
2022-10-05T02:27:44.737Z,12.12
2022-10-05T02:30:16.562Z,12.18
2022-10-05T02:32:45.180Z,12.12
2022-10-05T02:35:17.905Z,12.09
2022-10-05T02:38:05.051Z,12.12
2022-10-05T02:40:46.686Z,12.09
2022-10-05T02:43:47.743Z,12.04
2022-10-05T02:46:41.656Z,12.01
2022-10-05T02:49:18.524Z,12.04
2022-10-05T02:51:44.863Z,12.07
2022-10-05T02:54:58.429Z,12.04
2022-10-05T02:57:31.903Z,12.14
2022-10-05T03:00:13.726Z,12.24
2022-10-05T03:03:06.955Z,12.34
2022-10-05T03:05:54.221Z,12.25
2022-10-05T03:09:04.054Z,12.27
2022-10-05T03:11:34.471Z,12.22
2022-10-05T03:14:06.686Z,12.33
2022-10-05T03:16:48.082Z,12.35
2022-10-05T03:19:47.082Z,12.34
2022-10-05T03:22:44.515Z,12.30
2022-10-05T03:25:41.428Z,12.32
2022-10-05T03:28:38.804Z,12.32
2022-10-05T03:31:26.517Z,12.33
2022-10-05T03:34:04.453Z,12.35
2022-10-05T03:36:49.845Z,12.32
2022-10-05T03:39:34.983Z,12.40
2022-10-05T03:42:18.409Z,12.28
2022-10-05T03:45:13.828Z,12.23
2022-10-05T03:47:45.733Z,12.36
2022-10-05T03:50:17.482Z,12.36
2022-10-05T03:53:16.866Z,12.35
2022-10-05T03:56:04.963Z,12.29
2022-10-05T03:58:51.745Z,12.33
2022-10-05T04:01:22.884Z,12.28
2022-10-05T04:03:53.214Z,12.27
2022-10-05T04:06:27.105Z,12.27
2022-10-05T04:09:01.054Z,12.18
2022-10-05T04:11:40.415Z,12.17
2022-10-05T04:14:11.484Z,12.21
2022-10-05T04:16:45.205Z,12.16
2022-10-05T04:19:23.977Z,12.13
2022-10-05T04:22:15.722Z,12.12
2022-10-05T04:24:50.498Z,12.19
2022-10-05T04:27:20.470Z,12.15
2022-10-05T04:29:50.055Z,12.18
2022-10-05T04:32:42.654Z,12.08
2022-10-05T04:35:28.959Z,12.04
2022-10-05T04:37:55.279Z,12.02
2022-10-05T04:41:29.610Z,12.04
2022-10-05T04:44:17.124Z,11.99
2022-10-05T04:47:10.019Z,12.04
2022-10-05T04:49:36.422Z,12.05
2022-10-05T04:52:30.618Z,12.04
2022-10-05T04:55:28.696Z,12.10
2022-10-05T04:58:19.194Z,12.14
2022-10-05T05:01:04.501Z,12.14
2022-10-05T05:03:47.347Z,12.15
2022-10-05T05:06:26.877Z,12.14
2022-10-05T05:09:15.112Z,12.13
2022-10-05T05:12:19.378Z,12.11
2022-10-05T05:14:58.016Z,12.11
2022-10-05T05:18:03.442Z,12.13
2022-10-05T05:20:35.931Z,12.07
2022-10-05T05:23:26.550Z,12.13
2022-10-05T05:26:12.156Z,12.24
2022-10-05T05:28:52.424Z,12.31
2022-10-05T05:31:51.823Z,12.35
2022-10-05T05:34:30.389Z,12.38
2022-10-05T05:37:18.464Z,12.31
2022-10-05T05:40:04.917Z,12.37
2022-10-05T05:42:55.353Z,12.44
2022-10-05T05:45:41.867Z,12.44
2022-10-05T05:48:27.088Z,12.43
2022-10-05T05:50:59.920Z,12.39
2022-10-05T05:53:26.249Z,12.38
2022-10-05T05:56:19.024Z,12.42
2022-10-05T05:58:50.797Z,12.45
2022-10-05T06:01:32.576Z,12.46
2022-10-05T06:03:59.825Z,12.48
2022-10-05T06:06:30.905Z,12.48
2022-10-05T06:09:00.641Z,12.56
2022-10-05T06:11:47.027Z,12.65
2022-10-05T06:14:19.020Z,12.66
2022-10-05T06:16:50.635Z,12.73
2022-10-05T06:19:18.921Z,12.72
2022-10-05T06:21:55.882Z,12.71
2022-10-05T06:24:35.007Z,12.72
2022-10-05T06:27:13.096Z,12.81
2022-10-05T06:30:06.957Z,12.90
2022-10-05T06:33:03.142Z,12.88
2022-10-05T06:35:56.174Z,12.94
2022-10-05T06:38:39.117Z,12.99
2022-10-05T06:41:24.643Z,13.06
2022-10-05T06:43:59.244Z,13.05
2022-10-05T06:46:28.734Z,13.14
2022-10-05T06:49:17.257Z,13.11
2022-10-05T06:51:51.610Z,13.23
2022-10-05T06:58:39.396Z,13.31
2022-10-05T07:01:11.240Z,13.38
2022-10-05T07:03:50.103Z,13.31
2022-10-05T07:06:43.131Z,13.42
2022-10-05T07:09:51.227Z,13.48
2022-10-05T07:12:40.282Z,13.65
2022-10-05T07:15:19.735Z,13.61
2022-10-05T07:17:53.010Z,13.63
2022-10-05T07:21:13.828Z,13.72
2022-10-05T07:23:53.018Z,13.82
2022-10-05T07:26:38.996Z,13.85
2022-10-05T07:29:30.651Z,13.85
2022-10-05T07:32:28.693Z,13.81
2022-10-05T07:35:30.698Z,13.82
2022-10-05T07:38:00.974Z,13.81
2022-10-05T07:40:37.924Z,13.89
2022-10-05T07:44:02.984Z,13.84
2022-10-05T07:46:48.951Z,13.89
2022-10-05T07:49:23.140Z,13.88
2022-10-05T07:51:55.131Z,13.95
2022-10-05T07:54:28.564Z,14.03
2022-10-05T07:56:56.866Z,14.05
2022-10-05T07:59:32.579Z,14.13
2022-10-05T08:02:20.014Z,14.20
2022-10-05T08:05:02.578Z,14.12
2022-10-05T08:07:30.119Z,14.26
2022-10-05T08:10:05.942Z,14.34
2022-10-05T08:12:32.314Z,14.32
2022-10-05T08:15:16.176Z,14.36
2022-10-05T08:17:53.777Z,14.33
2022-10-05T08:20:29.448Z,14.41
2022-10-05T08:23:28.365Z,14.42
2022-10-05T08:26:10.683Z,14.48
2022-10-05T08:28:38.404Z,14.49
2022-10-05T08:31:07.816Z,14.56
2022-10-05T08:34:00.310Z,14.59
2022-10-05T08:36:55.693Z,14.63
2022-10-05T08:39:24.195Z,14.65
2022-10-05T08:42:13.939Z,14.69
2022-10-05T08:44:50.969Z,14.82
2022-10-05T08:47:25.423Z,14.85
2022-10-05T08:50:17.238Z,14.89
2022-10-05T08:53:13.476Z,14.95
2022-10-05T08:55:52.194Z,14.91
2022-10-05T08:58:44.034Z,14.96
2022-10-05T09:01:19.652Z,15.06
2022-10-05T09:04:00.863Z,15.07
2022-10-05T09:06:30.134Z,15.19
2022-10-05T09:09:20.361Z,15.12
2022-10-05T09:12:17.939Z,15.27
2022-10-05T09:15:24.995Z,15.25
2022-10-05T09:18:07.876Z,15.21
2022-10-05T09:20:43.288Z,15.31
2022-10-05T09:23:18.230Z,15.30
2022-10-05T09:25:58.648Z,15.45
2022-10-05T09:28:37.177Z,15.47
2022-10-05T09:31:33.026Z,15.41
2022-10-05T09:34:38.931Z,15.49
2022-10-05T09:37:25.329Z,15.62
2022-10-05T09:40:06.864Z,15.60
2022-10-05T09:43:01.447Z,15.59
2022-10-05T09:45:37.358Z,15.72
2022-10-05T09:48:23.725Z,15.78
2022-10-05T09:51:20.498Z,15.94
2022-10-05T09:54:44.901Z,15.86
2022-10-05T09:57:17.573Z,15.83
2022-10-05T10:00:15.989Z,15.92
2022-10-05T10:03:12.494Z,15.88
2022-10-05T10:06:11.056Z,15.92
2022-10-05T10:08:53.226Z,15.93
2022-10-05T10:11:28.792Z,15.94
2022-10-05T10:14:17.041Z,16.07
2022-10-05T10:16:56.792Z,16.18
2022-10-05T10:19:53.572Z,16.24
2022-10-05T10:22:28.486Z,16.23
2022-10-05T10:25:01.646Z,16.30
2022-10-05T10:27:56.884Z,16.34
2022-10-05T10:30:36.510Z,16.30
2022-10-05T10:33:11.840Z,16.11
2022-10-05T10:36:09.602Z,16.21
2022-10-05T10:38:58.398Z,16.26
2022-10-05T10:41:49.838Z,16.39
2022-10-05T10:44:37.782Z,16.33
2022-10-05T10:47:33.591Z,16.34
2022-10-05T10:50:04.884Z,16.32
2022-10-05T10:52:46.804Z,16.28
2022-10-05T10:55:50.904Z,16.47
2022-10-05T10:58:23.528Z,16.55
2022-10-05T11:01:19.246Z,16.64
2022-10-05T11:03:57.931Z,16.60
2022-10-05T11:07:09.984Z,16.52
2022-10-05T11:09:48.359Z,16.58
2022-10-05T11:12:44.148Z,16.55
2022-10-05T11:15:25.705Z,16.54
2022-10-05T11:18:20.681Z,16.60
2022-10-05T11:21:02.640Z,16.67
2022-10-05T11:23:58.999Z,16.67
2022-10-05T11:26:43.804Z,16.73
2022-10-05T11:29:37.589Z,16.85
2022-10-05T11:32:32.373Z,17.13
2022-10-05T11:35:25.972Z,17.19
2022-10-05T11:38:19.701Z,17.13
2022-10-05T11:41:13.358Z,17.50
2022-10-05T11:43:51.873Z,17.48
2022-10-05T11:46:36.343Z,17.79
2022-10-05T11:49:08.949Z,18.50
2022-10-05T11:51:38.209Z,18.94
2022-10-05T11:54:21.481Z,19.21
2022-10-05T11:56:55.962Z,19.42
2022-10-05T11:59:31.621Z,19.75
2022-10-05T12:02:25.554Z,19.56
2022-10-05T12:05:13.439Z,19.11
2022-10-05T12:08:02.528Z,18.81
2022-10-05T12:10:56.586Z,18.37
2022-10-05T12:13:40.302Z,18.33
2022-10-05T12:16:26.826Z,18.30
2022-10-05T12:19:09.939Z,18.15
2022-10-05T12:21:59.966Z,18.23
2022-10-05T12:24:35.545Z,18.25
2022-10-05T12:27:06.316Z,18.37
2022-10-05T12:30:08.459Z,18.28
2022-10-05T12:32:41.414Z,18.35
2022-10-05T12:36:12.577Z,18.45
2022-10-05T12:38:52.924Z,18.30
2022-10-05T12:41:48.422Z,18.50
2022-10-05T12:44:23.451Z,18.52
2022-10-05T12:47:10.636Z,18.67
2022-10-05T12:49:52.006Z,18.82
2022-10-05T12:53:08.606Z,18.78
2022-10-05T12:56:00.989Z,18.72
2022-10-05T12:58:45.817Z,18.81
2022-10-05T13:01:41.466Z,18.74
2022-10-05T13:04:24.157Z,18.93
2022-10-05T13:10:53.550Z,18.89
2022-10-05T13:13:43.551Z,19.05
2022-10-05T13:16:19.056Z,19.26
2022-10-05T13:19:12.527Z,19.43
2022-10-05T13:21:57.690Z,20.54
2022-10-05T13:24:32.737Z,21.87
2022-10-05T13:27:04.103Z,22.58
2022-10-05T13:30:18.865Z,23.60
2022-10-05T13:32:58.897Z,24.29
2022-10-05T13:36:05.302Z,24.94
2022-10-05T13:38:48.630Z,24.12
2022-10-05T13:41:34.288Z,24.49
2022-10-05T13:44:00.605Z,24.79
2022-10-05T13:46:51.498Z,24.78
2022-10-05T13:49:29.537Z,25.19
2022-10-05T13:52:08.713Z,25.43
2022-10-05T13:54:47.499Z,25.12
2022-10-05T13:57:21.125Z,25.65
2022-10-05T13:59:53.974Z,25.67
2022-10-05T14:02:23.492Z,25.60
2022-10-05T14:04:51.942Z,26.31
2022-10-05T14:07:51.373Z,27.13
2022-10-05T14:10:39.049Z,26.89
2022-10-05T14:13:28.832Z,27.14
2022-10-05T14:15:59.373Z,27.08
2022-10-05T14:18:28.083Z,27.83
2022-10-05T14:20:59.815Z,27.35
2022-10-05T14:23:27.120Z,26.28
2022-10-05T14:25:54.184Z,26.85
2022-10-05T14:28:33.960Z,25.90
2022-10-05T14:31:15.546Z,27.13
2022-10-05T14:33:42.395Z,26.86
2022-10-05T14:36:22.378Z,26.35
2022-10-05T14:38:56.158Z,25.18
2022-10-05T14:41:27.685Z,23.69
2022-10-05T14:44:02.089Z,22.95
2022-10-05T14:46:32.502Z,22.48
2022-10-05T14:49:22.543Z,22.03
2022-10-05T14:51:50.277Z,21.74
2022-10-05T14:54:53.907Z,21.25
2022-10-05T14:57:30.673Z,21.08
2022-10-05T15:00:06.739Z,20.72
2022-10-05T15:02:49.581Z,20.48
2022-10-05T15:05:21.041Z,20.40
2022-10-05T15:07:49.266Z,20.32
2022-10-05T15:10:36.342Z,20.33
2022-10-05T15:13:13.405Z,20.53
2022-10-05T15:16:31.605Z,20.55
2022-10-05T15:19:17.030Z,20.92
2022-10-05T15:22:02.121Z,21.35
2022-10-05T15:24:45.378Z,21.05
2022-10-05T15:27:25.211Z,20.60
2022-10-05T15:30:09.131Z,20.57
2022-10-05T15:32:58.030Z,21.02
2022-10-05T15:35:46.427Z,21.35
2022-10-05T15:38:27.487Z,21.68
2022-10-05T15:41:18.328Z,21.94
2022-10-05T15:44:09.331Z,22.09
2022-10-05T15:46:41.497Z,21.52
2022-10-05T15:49:33.793Z,20.88
2022-10-05T15:52:11.854Z,20.65
2022-10-05T15:55:28.386Z,20.06
2022-10-05T15:58:25.399Z,19.66
2022-10-05T16:00:59.277Z,19.53
2022-10-05T16:08:08.188Z,19.16
2022-10-05T16:10:38.632Z,18.91
2022-10-05T16:13:19.326Z,18.87
2022-10-05T16:16:00.287Z,18.83
2022-10-05T16:18:38.841Z,18.70
2022-10-05T16:21:25.707Z,18.68
2022-10-05T16:24:10.525Z,18.54
2022-10-05T16:29:53.239Z,18.54
2022-10-05T16:32:22.532Z,18.53
2022-10-05T16:34:54.138Z,18.51
2022-10-05T16:37:28.982Z,18.54
2022-10-05T16:39:59.659Z,18.50
2022-10-05T16:42:39.008Z,18.50
2022-10-05T16:45:18.387Z,18.42
2022-10-05T16:47:44.746Z,18.42
2022-10-05T16:50:25.293Z,18.27
2022-10-05T16:53:13.182Z,18.30
2022-10-05T16:55:48.235Z,18.33
2022-10-05T16:58:27.316Z,18.32
2022-10-05T17:01:00.469Z,18.21
2022-10-05T17:07:24.048Z,18.06
2022-10-05T17:10:25.204Z,18.04
2022-10-05T17:13:11.486Z,18.11
2022-10-05T17:15:56.833Z,18.09
2022-10-05T17:18:51.408Z,18.04
2022-10-05T17:21:26.293Z,17.96
2022-10-05T17:28:15.669Z,17.62
2022-10-05T17:31:08.969Z,17.58
2022-10-05T17:34:12.394Z,17.43
2022-10-05T17:36:57.645Z,17.52
2022-10-05T17:39:51.897Z,17.42
2022-10-05T17:42:30.720Z,17.38
2022-10-05T17:45:09.551Z,17.42
2022-10-05T17:48:29.302Z,17.40
2022-10-05T17:51:14.457Z,17.33
2022-10-05T17:56:49.053Z,17.45
2022-10-05T17:59:38.834Z,17.49
2022-10-05T18:02:21.380Z,17.56
2022-10-05T18:05:15.109Z,17.71
2022-10-05T18:08:21.246Z,17.70
2022-10-05T18:11:10.165Z,17.67
2022-10-05T18:13:50.121Z,17.68
2022-10-05T18:16:54.370Z,17.67
2022-10-05T18:19:21.957Z,17.66
2022-10-05T18:22:15.908Z,17.61
2022-10-05T18:24:45.253Z,17.63
2022-10-05T18:27:31.665Z,17.64
2022-10-05T18:30:17.905Z,17.56
2022-10-05T18:32:54.294Z,17.53
2022-10-05T18:35:42.936Z,17.51
2022-10-05T18:38:36.909Z,17.51
2022-10-05T18:41:36.512Z,17.47
2022-10-05T18:44:08.865Z,17.52
2022-10-05T18:47:02.690Z,17.54
2022-10-05T18:49:53.591Z,17.56
2022-10-05T18:52:38.796Z,17.51
2022-10-05T18:55:19.277Z,17.47
2022-10-05T18:57:51.318Z,17.43
2022-10-05T19:00:20.775Z,17.42
2022-10-05T19:03:19.766Z,17.42
2022-10-05T19:06:06.593Z,17.48
2022-10-05T19:08:41.992Z,17.34
2022-10-05T19:11:08.298Z,17.29
2022-10-05T19:13:46.989Z,17.34
2022-10-05T19:16:51.203Z,17.32
2022-10-05T19:19:35.870Z,17.32
2022-10-05T19:22:44.192Z,17.23
2022-10-05T19:25:20.509Z,17.30
2022-10-05T19:28:14.092Z,17.33
2022-10-05T19:30:51.743Z,17.35
2022-10-05T19:33:45.384Z,17.38
2022-10-05T19:36:46.088Z,17.30
2022-10-05T19:39:29.072Z,17.34
2022-10-05T19:42:01.568Z,17.27
2022-10-05T19:44:47.940Z,17.28
2022-10-05T19:47:45.382Z,17.30
2022-10-05T19:50:24.138Z,17.37
2022-10-05T19:52:52.159Z,17.36
2022-10-05T19:55:22.281Z,17.40
2022-10-05T19:57:55.452Z,17.40
2022-10-05T20:00:31.205Z,17.43
2022-10-05T20:03:27.458Z,17.47
2022-10-05T20:05:58.182Z,17.48
2022-10-05T20:08:26.881Z,17.48
2022-10-05T20:11:29.233Z,17.39
2022-10-05T20:13:55.521Z,17.43
2022-10-05T20:16:51.070Z,17.42
2022-10-05T20:19:50.361Z,17.42
2022-10-05T20:22:26.574Z,17.46
2022-10-05T20:24:57.362Z,17.48
2022-10-05T20:27:41.965Z,17.52
2022-10-05T20:30:10.003Z,17.51
2022-10-05T20:32:36.392Z,17.48
2022-10-05T20:35:02.821Z,17.56
2022-10-05T20:37:29.201Z,17.57
2022-10-05T20:39:55.591Z,17.62
2022-10-05T20:42:23.693Z,17.66
2022-10-05T20:44:55.798Z,17.54
2022-10-05T20:47:23.357Z,17.57
2022-10-05T20:49:50.016Z,17.55
2022-10-05T20:52:16.593Z,17.62
2022-10-05T20:54:43.243Z,17.62
2022-10-05T20:57:10.069Z,17.56
2022-10-05T20:59:37.457Z,17.54
2022-10-05T21:02:04.807Z,17.59
2022-10-05T21:04:40.961Z,17.60
2022-10-05T21:07:08.406Z,17.67
2022-10-05T21:09:37.854Z,17.68
2022-10-05T21:12:04.341Z,17.60
2022-10-05T21:14:34.401Z,17.74
2022-10-05T21:17:01.838Z,17.79
2022-10-05T21:19:29.356Z,17.75
2022-10-05T21:21:59.217Z,17.70
2022-10-05T21:24:25.755Z,17.79
2022-10-05T21:26:52.165Z,17.73
2022-10-05T21:29:18.599Z,17.72
2022-10-05T21:31:45.177Z,17.70
2022-10-05T21:34:11.560Z,17.76
2022-10-05T21:36:37.977Z,17.73
2022-10-05T21:39:04.495Z,17.76
2022-10-05T21:41:31.090Z,17.75
2022-10-05T21:43:57.459Z,17.77
2022-10-05T21:46:26.484Z,17.72
2022-10-05T21:48:53.923Z,17.65
2022-10-05T21:51:23.545Z,17.67
2022-10-05T21:53:54.784Z,17.78
2022-10-05T21:56:23.445Z,17.67
2022-10-05T21:58:50.746Z,17.69
2022-10-05T22:01:22.486Z,17.70
2022-10-05T22:03:49.643Z,17.66
2022-10-05T22:06:16.044Z,17.66
2022-10-05T22:08:42.452Z,17.60
2022-10-05T22:11:12.054Z,17.49
2022-10-05T22:13:50.050Z,17.19
2022-10-05T22:16:18.226Z,16.66
2022-10-05T22:18:44.790Z,16.14
2022-10-05T22:21:12.572Z,15.79
2022-10-05T22:23:43.637Z,15.64
2022-10-05T22:26:11.344Z,15.60
2022-10-05T22:28:39.037Z,15.53
2022-10-05T22:31:06.782Z,15.47
2022-10-05T22:33:33.624Z,15.44
2022-10-05T22:36:00.187Z,15.42
2022-10-05T22:38:27.377Z,15.46
2022-10-05T22:40:54.054Z,15.55
2022-10-05T22:43:20.647Z,15.61
2022-10-05T22:45:47.127Z,15.56
2022-10-05T22:48:13.641Z,15.56
2022-10-05T22:50:40.014Z,15.56
2022-10-05T22:53:06.502Z,15.49
2022-10-05T22:55:32.926Z,15.51
2022-10-05T22:58:01.478Z,15.46
2022-10-05T23:00:53.286Z,15.53
2022-10-05T23:03:15.634Z,15.55
2022-10-05T23:05:42.006Z,15.52
2022-10-05T23:08:08.518Z,15.61
2022-10-05T23:10:38.992Z,15.51
2022-10-05T23:13:06.435Z,15.48
2022-10-05T23:15:34.183Z,15.49
2022-10-05T23:18:00.765Z,15.26
2022-10-05T23:20:27.158Z,15.33
2022-10-05T23:22:53.742Z,15.30
2022-10-05T23:25:22.071Z,15.23
2022-10-05T23:27:48.481Z,14.97
2022-10-05T23:30:15.012Z,14.88
2022-10-05T23:32:42.990Z,14.58
2022-10-05T23:35:11.582Z,14.54
2022-10-05T23:37:43.028Z,14.26
2022-10-05T23:40:12.095Z,14.21
2022-10-05T23:42:41.820Z,14.29
2022-10-05T23:45:09.937Z,14.06
2022-10-05T23:47:36.354Z,13.92
2022-10-05T23:50:03.692Z,13.82
2022-10-05T23:52:30.231Z,13.65
2022-10-05T23:54:56.657Z,13.66
2022-10-05T23:57:23.030Z,13.63
2022-10-05T23:59:52.542Z,13.71
